createdAt,value
2023-05-22T00:00:52.869Z,20.70
2023-05-22T00:03:43.633Z,20.60
2023-05-22T00:06:34.112Z,20.60
2023-05-22T00:09:25.483Z,20.60
2023-05-22T00:12:14.837Z,20.60
2023-05-22T00:15:04.495Z,20.60
2023-05-22T00:17:54.106Z,20.50
2023-05-22T00:20:46.549Z,20.50
2023-05-22T00:23:35.979Z,20.50
2023-05-22T00:26:25.388Z,20.40
2023-05-22T00:29:14.736Z,20.40
2023-05-22T00:32:04.191Z,20.40
2023-05-22T00:34:53.650Z,20.40
2023-05-22T00:37:46.122Z,20.40
2023-05-22T00:40:35.685Z,20.40
2023-05-22T00:43:25.031Z,20.30
2023-05-22T00:46:15.260Z,20.30
2023-05-22T00:49:04.656Z,20.30
2023-05-22T00:51:54.149Z,20.30
2023-05-22T00:54:45.019Z,20.20
2023-05-22T00:57:34.885Z,20.20
2023-05-22T01:00:24.741Z,20.20
2023-05-22T01:03:14.467Z,20.10
2023-05-22T01:06:04.039Z,20.10
2023-05-22T01:08:53.383Z,20.10
2023-05-22T01:11:53.132Z,20.10
2023-05-22T01:14:49.961Z,20.00
2023-05-22T01:17:48.462Z,20.00
2023-05-22T01:20:43.795Z,19.90
2023-05-22T01:24:25.958Z,19.90
2023-05-22T01:28:02.064Z,19.90
2023-05-22T01:31:02.253Z,19.80
2023-05-22T01:33:56.510Z,19.80
2023-05-22T01:36:48.172Z,19.70
2023-05-22T01:39:38.642Z,19.70
2023-05-22T01:42:28.721Z,19.70
2023-05-22T01:45:18.093Z,19.60
2023-05-22T01:48:09.495Z,19.60
2023-05-22T01:51:05.293Z,19.60
2023-05-22T01:54:06.097Z,19.60
2023-05-22T01:57:02.751Z,19.50
2023-05-22T02:00:02.494Z,19.50
2023-05-22T02:03:01.359Z,19.50
2023-05-22T02:05:56.391Z,19.50
2023-05-22T02:08:46.220Z,19.50
2023-05-22T02:11:37.285Z,19.50
2023-05-22T02:14:27.287Z,19.40
2023-05-22T02:17:18.219Z,19.40
2023-05-22T02:20:14.372Z,19.30
2023-05-22T02:23:07.491Z,19.30
2023-05-22T02:25:56.960Z,19.30
2023-05-22T02:28:46.325Z,19.20
2023-05-22T02:31:35.784Z,19.20
2023-05-22T02:34:25.213Z,19.20
2023-05-22T02:37:15.859Z,19.10
2023-05-22T02:40:08.277Z,19.10
2023-05-22T02:42:57.590Z,19.10
2023-05-22T02:45:46.994Z,19.00
2023-05-22T02:48:36.447Z,19.00
2023-05-22T02:51:25.837Z,19.00
2023-05-22T02:54:17.087Z,19.00
2023-05-22T02:57:07.934Z,19.00
2023-05-22T02:59:57.657Z,19.00
2023-05-22T03:02:47.342Z,19.00
2023-05-22T03:05:38.500Z,19.00
2023-05-22T03:08:30.209Z,19.00
2023-05-22T03:11:19.747Z,19.00
2023-05-22T03:14:10.391Z,19.00
2023-05-22T03:16:59.794Z,18.90
2023-05-22T03:19:49.179Z,18.90
2023-05-22T03:22:38.521Z,18.90
2023-05-22T03:25:27.938Z,18.90
2023-05-22T03:28:17.765Z,18.90
2023-05-22T03:31:09.404Z,18.90
2023-05-22T03:34:11.059Z,18.90
2023-05-22T03:37:01.201Z,18.90
2023-05-22T03:39:50.599Z,18.90
2023-05-22T03:42:45.403Z,19.00
2023-05-22T03:45:35.455Z,19.00
2023-05-22T03:48:27.440Z,19.00
2023-05-22T03:51:19.999Z,19.10
2023-05-22T03:54:09.604Z,19.10
2023-05-22T03:56:58.897Z,19.20
2023-05-22T03:59:48.306Z,19.20
2023-05-22T04:02:40.615Z,19.30
2023-05-22T04:05:31.911Z,19.40
2023-05-22T04:08:21.777Z,19.50
2023-05-22T04:11:11.127Z,19.60
2023-05-22T04:14:04.949Z,19.70
2023-05-22T04:16:54.366Z,19.80
2023-05-22T04:19:43.705Z,19.90
2023-05-22T04:22:34.459Z,20.10
2023-05-22T04:25:25.757Z,20.30
2023-05-22T04:28:17.569Z,20.50
2023-05-22T04:31:08.868Z,20.70
2023-05-22T04:34:00.204Z,20.90
2023-05-22T04:36:49.709Z,21.10
2023-05-22T04:39:41.708Z,21.40
2023-05-22T04:42:31.465Z,21.70
2023-05-22T04:45:21.229Z,22.00
2023-05-22T04:48:12.026Z,22.40
2023-05-22T04:51:02.575Z,22.90
2023-05-22T04:53:52.149Z,23.40
2023-05-22T04:56:42.939Z,23.80
2023-05-22T04:59:33.586Z,24.20
2023-05-22T05:02:23.187Z,24.70
2023-05-22T05:05:12.841Z,25.00
2023-05-22T05:08:02.823Z,25.20
2023-05-22T05:10:52.355Z,25.40
2023-05-22T05:13:43.079Z,25.50
2023-05-22T05:16:32.469Z,25.60
2023-05-22T05:19:22.294Z,25.80
2023-05-22T05:22:11.906Z,26.00
2023-05-22T05:25:01.832Z,26.20
2023-05-22T05:27:51.765Z,26.40
2023-05-22T05:30:44.364Z,26.70
2023-05-22T05:33:52.174Z,26.90
2023-05-22T05:36:53.252Z,27.20
2023-05-22T05:39:44.522Z,27.50
2023-05-22T05:42:34.116Z,27.80
2023-05-22T05:45:25.670Z,28.10
2023-05-22T05:48:16.917Z,28.40
2023-05-22T05:51:08.469Z,28.70
2023-05-22T05:54:01.765Z,29.00
2023-05-22T05:56:51.207Z,29.30
2023-05-22T05:59:40.937Z,29.60
2023-05-22T06:03:05.646Z,29.90
2023-05-22T06:06:14.153Z,30.30
2023-05-22T06:09:39.186Z,30.60
2023-05-22T06:12:35.930Z,31.10
2023-05-22T06:15:26.312Z,31.40
2023-05-22T06:18:17.390Z,31.80
2023-05-22T06:21:07.124Z,32.20
2023-05-22T06:23:58.855Z,32.50
2023-05-22T06:26:48.429Z,32.80
2023-05-22T06:29:37.786Z,33.00
2023-05-22T06:32:28.096Z,33.20
2023-05-22T06:35:18.463Z,33.30
2023-05-22T06:38:07.898Z,33.40
2023-05-22T06:40:58.922Z,33.60
2023-05-22T06:43:49.558Z,33.90
2023-05-22T06:46:43.933Z,34.20
2023-05-22T06:49:40.420Z,34.50
2023-05-22T06:52:29.817Z,34.90
2023-05-22T06:55:19.173Z,35.30
2023-05-22T06:58:26.786Z,35.70
2023-05-22T07:01:16.342Z,36.00
2023-05-22T07:04:17.306Z,36.20
2023-05-22T07:07:16.979Z,36.50
2023-05-22T07:10:07.963Z,36.80
2023-05-22T07:12:57.988Z,37.10
2023-05-22T07:15:49.241Z,37.40
2023-05-22T07:18:40.130Z,37.80
2023-05-22T07:21:31.822Z,38.10
2023-05-22T07:24:21.523Z,38.30
2023-05-22T07:27:12.605Z,38.70
2023-05-22T07:30:02.931Z,39.00
2023-05-22T07:32:56.137Z,39.40
2023-05-22T07:35:46.295Z,39.80
2023-05-22T07:38:35.965Z,40.30
2023-05-22T07:41:27.839Z,40.70
2023-05-22T07:44:18.088Z,40.80
2023-05-22T07:47:09.028Z,40.80
2023-05-22T07:50:00.039Z,40.60
2023-05-22T07:52:49.451Z,40.30
2023-05-22T07:55:40.075Z,39.90
2023-05-22T07:58:30.681Z,39.60
2023-05-22T08:01:20.209Z,39.30
2023-05-22T08:04:09.812Z,39.10
2023-05-22T08:07:01.614Z,38.90
2023-05-22T08:09:51.039Z,38.80
2023-05-22T08:12:40.469Z,38.80
2023-05-22T08:15:29.856Z,38.80
2023-05-22T08:18:19.354Z,38.80
2023-05-22T08:21:11.612Z,38.90
2023-05-22T08:24:02.423Z,39.00
2023-05-22T08:26:51.762Z,39.10
2023-05-22T08:29:41.192Z,39.30
2023-05-22T08:32:40.426Z,39.40
2023-05-22T08:35:30.032Z,39.60
2023-05-22T08:38:19.451Z,39.80
2023-05-22T08:41:11.131Z,39.90
2023-05-22T08:44:00.457Z,40.10
2023-05-22T08:46:51.500Z,40.30
2023-05-22T08:49:41.843Z,40.40
2023-05-22T08:52:41.184Z,40.60
2023-05-22T08:55:31.547Z,40.70
2023-05-22T08:58:27.292Z,40.50
2023-05-22T09:01:17.537Z,40.30
2023-05-22T09:04:07.194Z,40.00
2023-05-22T09:06:56.724Z,39.80
2023-05-22T09:09:46.099Z,39.30
2023-05-22T09:12:35.653Z,38.90
2023-05-22T09:15:31.776Z,38.50
2023-05-22T09:18:22.092Z,38.10
2023-05-22T09:21:25.656Z,37.80
2023-05-22T09:24:19.132Z,37.40
2023-05-22T09:27:09.783Z,37.10
2023-05-22T09:29:59.782Z,36.80
2023-05-22T09:32:51.651Z,36.60
2023-05-22T09:35:42.181Z,36.40
2023-05-22T09:38:32.138Z,36.20
2023-05-22T09:41:24.481Z,36.20
2023-05-22T09:44:15.419Z,36.20
2023-05-22T09:47:06.331Z,36.40
2023-05-22T09:49:59.520Z,36.50
2023-05-22T09:52:51.403Z,36.70
2023-05-22T09:55:41.793Z,37.00
2023-05-22T09:58:34.456Z,37.10
2023-05-22T10:01:25.212Z,37.20
2023-05-22T10:04:16.381Z,37.20
2023-05-22T10:07:07.768Z,37.10
2023-05-22T10:10:05.913Z,37.10
2023-05-22T10:13:01.426Z,37.00
2023-05-22T10:15:52.050Z,36.80
2023-05-22T10:18:42.868Z,36.70
2023-05-22T10:21:32.844Z,36.60
2023-05-22T10:24:25.217Z,36.60
2023-05-22T10:27:14.588Z,36.70
2023-05-22T10:30:20.425Z,36.80
2023-05-22T10:33:35.900Z,36.90
2023-05-22T10:36:38.508Z,36.90
2023-05-22T10:39:42.333Z,37.00
2023-05-22T10:42:33.181Z,37.20
2023-05-22T10:45:22.597Z,37.20
2023-05-22T10:48:13.586Z,37.20
2023-05-22T10:51:03.522Z,37.10
2023-05-22T10:53:54.562Z,36.90
2023-05-22T10:56:46.814Z,36.70
2023-05-22T10:59:36.269Z,36.60
2023-05-22T11:02:29.893Z,36.40
2023-05-22T11:05:36.322Z,36.30
2023-05-22T11:08:39.597Z,36.10
2023-05-22T11:11:29.401Z,35.90
2023-05-22T11:14:22.079Z,35.70
2023-05-22T11:17:14.649Z,35.50
2023-05-22T11:20:07.141Z,35.20
2023-05-22T11:23:00.514Z,34.90
2023-05-22T11:25:49.883Z,34.70
2023-05-22T11:28:40.607Z,34.50
2023-05-22T11:31:31.867Z,34.30
2023-05-22T11:34:22.210Z,34.10
2023-05-22T11:37:11.731Z,34.00
2023-05-22T11:40:07.328Z,33.80
2023-05-22T11:42:57.795Z,33.70
2023-05-22T11:45:47.084Z,33.50
2023-05-22T11:48:42.016Z,33.30
2023-05-22T11:51:31.561Z,33.20
2023-05-22T11:54:22.239Z,33.10
2023-05-22T11:57:11.592Z,33.00
2023-05-22T12:00:01.304Z,32.90
2023-05-22T12:02:50.991Z,32.80
2023-05-22T12:05:41.794Z,32.70
2023-05-22T12:08:31.428Z,32.50
2023-05-22T12:11:21.706Z,32.30
2023-05-22T12:14:13.383Z,32.20
2023-05-22T12:17:04.371Z,32.00
2023-05-22T12:19:55.019Z,31.90
2023-05-22T12:22:45.901Z,31.80
2023-05-22T12:25:37.511Z,31.70
2023-05-22T12:28:27.271Z,31.70
2023-05-22T12:31:22.746Z,31.60
2023-05-22T12:34:12.098Z,31.50
2023-05-22T12:37:01.875Z,31.40
2023-05-22T12:40:00.537Z,31.30
2023-05-22T12:42:50.621Z,31.20
2023-05-22T12:45:41.346Z,31.10
2023-05-22T12:48:30.706Z,30.90
2023-05-22T12:51:20.288Z,30.80
2023-05-22T12:54:09.712Z,30.80
2023-05-22T12:57:00.662Z,30.70
2023-05-22T12:59:50.003Z,30.70
2023-05-22T13:02:39.508Z,30.70
2023-05-22T13:05:28.883Z,30.70
2023-05-22T13:08:18.256Z,30.70
2023-05-22T13:11:07.601Z,30.60
2023-05-22T13:13:58.357Z,30.50
2023-05-22T13:16:47.788Z,30.50
2023-05-22T13:19:37.319Z,30.40
2023-05-22T13:22:26.987Z,30.30
2023-05-22T13:25:19.067Z,30.30
2023-05-22T13:28:08.643Z,30.20
2023-05-22T13:30:59.400Z,30.20
2023-05-22T13:33:48.797Z,30.20
2023-05-22T13:36:38.234Z,30.10
2023-05-22T13:39:27.690Z,30.10
2023-05-22T13:42:17.183Z,30.00
2023-05-22T13:45:08.350Z,30.00
2023-05-22T13:47:59.137Z,29.90
2023-05-22T13:50:49.082Z,29.90
2023-05-22T13:53:38.983Z,30.00
2023-05-22T13:56:28.508Z,30.00
2023-05-22T13:59:18.103Z,30.00
2023-05-22T14:02:08.745Z,29.90
2023-05-22T14:04:59.606Z,30.00
2023-05-22T14:07:49.086Z,30.00
2023-05-22T14:10:38.882Z,30.00
2023-05-22T14:13:28.460Z,29.90
2023-05-22T14:16:17.981Z,29.90
2023-05-22T14:19:07.368Z,29.90
2023-05-22T14:21:58.345Z,29.90
2023-05-22T14:24:48.949Z,29.80
2023-05-22T14:27:44.211Z,29.80
2023-05-22T14:30:33.574Z,29.80
2023-05-22T14:33:26.313Z,29.80
2023-05-22T14:36:17.948Z,29.80
2023-05-22T14:39:09.994Z,29.80
2023-05-22T14:42:01.221Z,29.80
2023-05-22T14:44:50.796Z,29.70
2023-05-22T14:47:40.843Z,29.70
2023-05-22T14:50:30.231Z,29.60
2023-05-22T14:53:19.666Z,29.60
2023-05-22T14:56:11.037Z,29.50
2023-05-22T14:59:00.525Z,29.50
2023-05-22T15:01:50.555Z,29.40
2023-05-22T15:04:40.109Z,29.40
2023-05-22T15:07:43.123Z,29.40
2023-05-22T15:10:33.690Z,29.40
2023-05-22T15:13:25.173Z,29.40
2023-05-22T15:16:14.733Z,29.40
2023-05-22T15:19:04.243Z,29.40
2023-05-22T15:21:55.277Z,29.40
2023-05-22T15:24:49.193Z,29.40
2023-05-22T15:27:40.761Z,29.30
2023-05-22T15:30:36.080Z,29.30
2023-05-22T15:33:25.655Z,29.20
2023-05-22T15:36:14.994Z,29.20
2023-05-22T15:39:04.514Z,29.20
2023-05-22T15:42:05.343Z,29.10
2023-05-22T15:44:55.618Z,29.10
2023-05-22T15:47:46.969Z,29.10
2023-05-22T15:50:36.612Z,29.10
2023-05-22T15:53:26.108Z,29.10
2023-05-22T15:56:15.597Z,29.00
2023-05-22T15:59:04.919Z,29.00
2023-05-22T16:01:54.366Z,29.00
2023-05-22T16:04:45.157Z,28.90
2023-05-22T16:07:34.513Z,28.90
2023-05-22T16:10:24.161Z,28.80
2023-05-22T16:13:13.738Z,28.80
2023-05-22T16:16:05.932Z,28.70
2023-05-22T16:18:55.604Z,28.70
2023-05-22T16:21:46.593Z,28.60
2023-05-22T16:24:36.094Z,28.60
2023-05-22T16:27:25.771Z,28.60
2023-05-22T16:30:16.803Z,28.50
2023-05-22T16:33:06.587Z,28.40
2023-05-22T16:35:56.021Z,28.40
2023-05-22T16:38:46.747Z,28.30
2023-05-22T16:41:37.702Z,28.30
2023-05-22T16:44:27.813Z,28.20
2023-05-22T16:47:17.244Z,28.10
2023-05-22T16:50:08.971Z,28.10
2023-05-22T16:52:58.358Z,28.00
2023-05-22T16:55:49.278Z,27.90
2023-05-22T16:58:38.632Z,27.80
2023-05-22T17:01:28.415Z,27.70
2023-05-22T17:04:19.223Z,27.60
2023-05-22T17:07:08.595Z,27.50
2023-05-22T17:09:58.063Z,27.40
2023-05-22T17:12:48.982Z,27.40
2023-05-22T17:15:38.625Z,27.30
2023-05-22T17:18:28.200Z,27.20
2023-05-22T17:21:18.032Z,27.10
2023-05-22T17:24:11.621Z,27.00
2023-05-22T17:27:03.466Z,26.90
2023-05-22T17:29:54.164Z,26.90
2023-05-22T17:32:44.861Z,26.80
2023-05-22T17:35:34.311Z,26.80
2023-05-22T17:38:23.689Z,26.70
2023-05-22T17:41:13.096Z,26.60
2023-05-22T17:44:02.434Z,26.60
2023-05-22T17:46:53.182Z,26.60
2023-05-22T17:49:42.657Z,26.50
2023-05-22T17:52:32.021Z,26.50
2023-05-22T17:55:22.010Z,26.50
2023-05-22T17:58:11.799Z,26.50
2023-05-22T18:01:01.304Z,26.40
2023-05-22T18:03:52.195Z,26.40
2023-05-22T18:06:42.152Z,26.40
2023-05-22T18:09:31.498Z,26.40
2023-05-22T18:15:13.596Z,26.20
2023-05-22T18:18:03.769Z,26.10
2023-05-22T18:20:55.077Z,26.10
2023-05-22T18:23:44.432Z,26.00
2023-05-22T18:26:33.942Z,25.90
2023-05-22T18:29:23.464Z,25.80
2023-05-22T18:32:13.892Z,25.70
2023-05-22T18:35:04.757Z,25.60
2023-05-22T18:37:55.637Z,25.60
2023-05-22T18:40:46.091Z,25.50
2023-05-22T18:43:36.160Z,25.40
2023-05-22T18:46:27.226Z,25.30
2023-05-22T18:49:16.885Z,25.20
2023-05-22T18:52:06.829Z,25.20
2023-05-22T18:54:58.783Z,25.10
2023-05-22T18:57:49.303Z,25.00
2023-05-22T19:00:39.761Z,24.90
2023-05-22T19:03:30.467Z,24.90
2023-05-22T19:06:19.986Z,24.80
2023-05-22T19:09:11.035Z,24.60
2023-05-22T19:12:02.179Z,24.60
2023-05-22T19:14:52.624Z,24.50
2023-05-22T19:17:42.108Z,24.50
2023-05-22T19:20:31.700Z,24.40
2023-05-22T19:23:21.095Z,24.30
2023-05-22T19:26:10.891Z,24.20
2023-05-22T19:29:01.775Z,24.10
2023-05-22T19:31:51.233Z,24.00
2023-05-22T19:34:40.626Z,24.00
2023-05-22T19:37:30.053Z,23.90
2023-05-22T19:40:19.700Z,23.80
2023-05-22T19:43:09.158Z,23.70
2023-05-22T19:46:00.014Z,23.70
2023-05-22T19:48:49.400Z,23.60
2023-05-22T19:51:38.812Z,23.60
2023-05-22T19:54:28.169Z,23.50
2023-05-22T19:57:17.470Z,23.40
2023-05-22T20:00:11.004Z,23.40
2023-05-22T20:03:01.935Z,23.30
2023-05-22T20:05:53.544Z,23.30
2023-05-22T20:08:42.948Z,23.30
2023-05-22T20:11:32.308Z,23.20
2023-05-22T20:14:21.644Z,23.20
2023-05-22T20:17:11.214Z,23.20
2023-05-22T20:20:02.279Z,23.20
2023-05-22T20:22:52.828Z,23.20
2023-05-22T20:25:42.623Z,23.20
2023-05-22T20:28:32.137Z,23.30
2023-05-22T20:31:21.622Z,23.30
2023-05-22T20:34:11.763Z,23.30
2023-05-22T20:37:04.125Z,23.30
2023-05-22T20:39:53.521Z,23.40
2023-05-22T20:42:43.523Z,23.40
2023-05-22T20:45:33.845Z,23.40
2023-05-22T20:48:23.269Z,23.40
2023-05-22T20:51:14.070Z,23.40
2023-05-22T20:54:05.306Z,23.30
2023-05-22T20:56:54.799Z,23.40
2023-05-22T20:59:44.200Z,23.40
2023-05-22T21:02:33.537Z,23.40
2023-05-22T21:05:23.230Z,23.30
2023-05-22T21:08:12.611Z,23.30
2023-05-22T21:11:03.358Z,23.30
2023-05-22T21:13:52.668Z,23.30
2023-05-22T21:16:42.093Z,23.30
2023-05-22T21:19:31.604Z,23.20
2023-05-22T21:22:21.191Z,23.20
2023-05-22T21:25:11.378Z,23.10
2023-05-22T21:28:02.342Z,23.10
2023-05-22T21:30:52.032Z,23.10
2023-05-22T21:33:41.419Z,23.00
2023-05-22T21:36:31.888Z,23.00
2023-05-22T21:39:21.424Z,22.90
2023-05-22T21:42:10.859Z,22.90
2023-05-22T21:45:01.887Z,22.90
2023-05-22T21:47:51.284Z,22.90
2023-05-22T21:50:40.911Z,22.80
2023-05-22T21:53:30.727Z,22.80
2023-05-22T21:56:20.192Z,22.80
2023-05-22T21:59:09.592Z,22.80
2023-05-22T22:02:00.640Z,22.70
2023-05-22T22:04:50.009Z,22.80
2023-05-22T22:07:39.356Z,22.80
2023-05-22T22:10:28.798Z,22.80
2023-05-22T22:13:18.153Z,22.80
2023-05-22T22:16:07.809Z,22.80
2023-05-22T22:19:01.140Z,22.80
2023-05-22T22:21:50.994Z,22.80
2023-05-22T22:24:40.392Z,22.80
2023-05-22T22:27:29.821Z,22.90
2023-05-22T22:30:19.280Z,22.90
2023-05-22T22:33:08.692Z,22.90
2023-05-22T22:35:59.707Z,22.90
2023-05-22T22:38:49.039Z,22.90
2023-05-22T22:41:38.409Z,22.90
2023-05-22T22:44:27.856Z,22.90
2023-05-22T22:47:17.359Z,22.90
2023-05-22T22:50:08.268Z,23.00
2023-05-22T22:52:59.192Z,23.00
2023-05-22T22:55:49.705Z,23.00
2023-05-22T22:58:40.149Z,23.00
2023-05-22T23:01:29.613Z,23.00
2023-05-22T23:04:19.239Z,23.00
2023-05-22T23:07:09.534Z,23.10
2023-05-22T23:10:00.596Z,23.10
2023-05-22T23:12:50.327Z,23.10
2023-05-22T23:15:40.331Z,23.10
2023-05-22T23:18:29.991Z,23.10
2023-05-22T23:21:19.509Z,23.10
2023-05-22T23:24:10.657Z,23.10
2023-05-22T23:27:01.439Z,23.10
2023-05-22T23:29:50.788Z,23.10
2023-05-22T23:32:40.323Z,23.10
2023-05-22T23:35:30.076Z,23.10
2023-05-22T23:38:19.504Z,23.10
2023-05-22T23:41:08.884Z,23.00
2023-05-22T23:43:59.702Z,23.00
2023-05-22T23:46:50.730Z,23.00
2023-05-22T23:49:40.284Z,23.00
2023-05-22T23:52:29.679Z,22.90
2023-05-22T23:55:19.136Z,22.90
2023-05-22T23:58:08.648Z,22.90
